Time;durP1;ratioP1;P1;durP2;ratioP2;P2;SDS_P1;SDS_P2;PMS_P1;PMS_P2;Temp;Humidity;BMP_temperature;BMP_pressure;BME280_temperature;BME280_humidity;BME280_pressure;Samples;Min_cycle;Max_cycle;Signal;HPM_P1;HPM_P2
2022/01/24 00:00:12;;;;;;;4.10;3.05;;;17.80;45.50;;;;;;5139970;27;20018;-60
2022/01/24 00:02:38;;;;;;;3.42;3.13;;;17.70;45.50;;;;;;5139848;27;20023;-59
2022/01/24 00:05:05;;;;;;;3.85;3.40;;;17.80;45.50;;;;;;5140040;27;20019;-59
2022/01/24 00:07:34;;;;;;;3.90;3.45;;;17.80;45.50;;;;;;5139871;27;20039;-60
2022/01/24 00:10:04;;;;;;;4.55;3.47;;;17.70;45.50;;;;;;5139863;27;20144;-59
2022/01/24 00:17:36;;;;;;;3.50;3.20;;;17.70;45.40;;;;;;5139687;27;20106;-59
2022/01/24 00:28:07;;;;;;;3.50;3.20;;;17.70;45.50;;;;;;5137783;27;20037;-58
2022/01/24 00:30:33;;;;;;;4.38;3.13;;;17.70;45.60;;;;;;5137489;27;20031;-58
2022/01/24 00:32:59;;;;;;;3.58;3.28;;;17.70;45.50;;;;;;5118676;27;20027;-59
2022/01/24 00:35:26;;;;;;;6.78;3.60;;;17.70;45.50;;;;;;5138443;27;20107;-58
2022/01/24 00:37:52;;;;;;;3.60;3.20;;;17.60;45.50;;;;;;5138248;27;20023;-58
2022/01/24 00:40:18;;;;;;;4.28;3.80;;;17.60;45.50;;;;;;5138511;27;20083;-58
2022/01/24 00:43:00;;;;;;;4.13;3.53;;;17.60;45.60;;;;;;5139074;27;20042;-59
2022/01/24 00:53:17;;;;;;;3.78;3.33;;;17.60;45.60;;;;;;5139672;27;20042;-58
2022/01/24 00:55:44;;;;;;;3.70;3.40;;;17.60;45.50;;;;;;5138446;27;20011;-56
2022/01/24 00:58:16;;;;;;;3.55;3.25;;;17.60;45.50;;;;;;5138651;27;20003;-58
2022/01/24 01:00:42;;;;;;;3.22;3.03;;;17.60;45.50;;;;;;5139307;27;20042;-62
2022/01/24 01:03:07;;;;;;;3.90;3.50;;;17.60;45.50;;;;;;5139418;27;20027;-59
2022/01/24 01:18:59;;;;;;;4.47;3.58;;;17.50;45.60;;;;;;5138900;27;20034;-58
2022/01/24 01:21:25;;;;;;;4.20;3.45;;;17.50;45.60;;;;;;5138406;27;20075;-57
2022/01/24 01:23:56;;;;;;;4.65;3.50;;;17.50;45.60;;;;;;5139154;27;20028;-56
2022/01/24 01:26:34;;;;;;;3.88;3.58;;;17.50;45.60;;;;;;5138954;27;20090;-57
2022/01/24 01:54:02;;;;;;;4.20;3.80;;;17.40;45.60;;;;;;5055405;28;20076;-57
2022/01/24 01:56:28;;;;;;;4.20;3.72;;;17.40;45.60;;;;;;5052732;28;20053;-57
2022/01/24 01:58:55;;;;;;;4.28;3.88;;;17.40;45.60;;;;;;5052711;28;20013;-57
2022/01/24 02:01:20;;;;;;;5.00;3.95;;;17.40;45.60;;;;;;5035940;28;20083;-58
2022/01/24 02:03:47;;;;;;;4.88;3.53;;;17.40;45.60;;;;;;5072236;28;20032;-57
2022/01/24 02:06:13;;;;;;;4.35;3.95;;;17.40;45.60;;;;;;5072401;28;20024;-57
2022/01/24 02:08:41;;;;;;;4.45;3.90;;;17.40;45.60;;;;;;5088731;28;20044;-55
2022/01/24 02:11:10;;;;;;;4.07;3.78;;;17.40;45.60;;;;;;5114796;28;20039;-57
2022/01/24 02:13:37;;;;;;;3.65;3.35;;;17.40;45.50;;;;;;5114914;28;20591;-55
2022/01/24 02:16:16;;;;;;;4.07;3.67;;;17.40;45.60;;;;;;5115836;28;20402;-57
2022/01/24 02:19:31;;;;;;;4.05;3.65;;;17.40;45.60;;;;;;5115250;28;20023;-57
2022/01/24 02:21:45;;;;;;;4.10;3.70;;;17.40;45.50;;;;;;5112269;28;20363;-57
2022/01/24 02:24:13;;;;;;;4.40;4.00;;;17.40;45.50;;;;;;5114400;28;20020;-57
2022/01/24 02:26:39;;;;;;;4.25;3.70;;;17.40;45.60;;;;;;5114098;28;20022;-58
2022/01/24 02:29:44;;;;;;;4.10;3.70;;;17.40;45.60;;;;;;5113989;28;20028;-57
2022/01/24 02:31:55;;;;;;;3.75;3.28;;;17.30;45.50;;;;;;5113119;28;20042;-56
2022/01/24 02:34:34;;;;;;;4.18;3.80;;;17.30;45.50;;;;;;5113923;28;20048;-57
2022/01/24 02:37:19;;;;;;;4.50;3.50;;;17.40;45.50;;;;;;5113805;28;20012;-56
2022/01/24 02:39:59;;;;;;;4.18;3.72;;;17.30;45.60;;;;;;5113777;28;20016;-56
2022/01/24 02:53:25;;;;;;;3.75;3.42;;;17.30;45.60;;;;;;5114249;28;20035;-56
2022/01/24 02:55:51;;;;;;;4.22;3.88;;;17.30;45.60;;;;;;5096368;28;20042;-53
2022/01/24 02:58:19;;;;;;;4.20;3.80;;;17.30;45.60;;;;;;5119304;28;20011;-56
2022/01/24 03:00:45;;;;;;;4.45;4.05;;;17.30;45.60;;;;;;5119171;28;20144;-55
2022/01/24 03:03:12;;;;;;;5.65;3.80;;;17.30;45.60;;;;;;5119403;28;20065;-54
2022/01/24 03:05:37;;;;;;;4.05;3.72;;;17.30;45.60;;;;;;5119051;28;20026;-55
2022/01/24 03:08:05;;;;;;;3.65;3.35;;;17.30;45.50;;;;;;5128938;27;20122;-56
2022/01/24 03:10:40;;;;;;;4.20;3.80;;;17.30;45.50;;;;;;5140124;27;20060;-54
2022/01/24 03:15:51;;;;;;;4.18;3.78;;;17.20;45.50;;;;;;5140241;27;20023;-54
2022/01/24 03:18:18;;;;;;;3.70;3.40;;;17.30;45.50;;;;;;5140197;27;20461;-55
2022/01/24 03:20:44;;;;;;;4.22;3.83;;;17.30;45.50;;;;;;5121191;27;20090;-56
2022/01/24 03:23:13;;;;;;;3.72;3.38;;;17.20;45.40;;;;;;5140984;27;20011;-58
2022/01/24 03:25:40;;;;;;;4.25;3.80;;;17.20;45.40;;;;;;5126439;27;20040;-57
2022/01/24 03:28:06;;;;;;;4.00;3.60;;;17.20;45.40;;;;;;5144756;27;20036;-55
2022/01/24 03:30:32;;;;;;;4.07;3.75;;;17.20;45.40;;;;;;5143919;27;20090;-54
2022/01/24 03:32:58;;;;;;;4.22;3.83;;;17.20;45.50;;;;;;5143622;27;20106;-56
2022/01/24 03:35:25;;;;;;;4.43;3.60;;;17.20;45.50;;;;;;5144582;27;20007;-58
2022/01/24 03:37:51;;;;;;;4.30;3.88;;;17.20;45.50;;;;;;5144928;27;20027;-57
2022/01/24 03:40:18;;;;;;;4.10;3.80;;;17.20;45.50;;;;;;5140823;27;20012;-57
2022/01/24 03:42:44;;;;;;;3.67;3.38;;;17.20;45.40;;;;;;5139876;27;20043;-56
2022/01/24 03:45:11;;;;;;;3.83;3.35;;;17.20;45.30;;;;;;5139770;27;20007;-57
2022/01/24 03:50:08;;;;;;;4.05;3.65;;;17.20;45.30;;;;;;5139772;27;20034;-57
2022/01/24 03:52:34;;;;;;;3.88;3.50;;;17.20;45.40;;;;;;5139544;27;20027;-57
2022/01/24 03:55:01;;;;;;;6.20;3.90;;;17.10;45.30;;;;;;5139591;27;20023;-57
2022/01/24 03:57:28;;;;;;;4.30;3.70;;;17.20;45.40;;;;;;5139675;27;20011;-55
2022/01/24 03:59:53;;;;;;;3.83;3.53;;;17.20;45.30;;;;;;5139605;27;20050;-56
2022/01/24 04:02:21;;;;;;;4.30;3.90;;;17.20;45.40;;;;;;5139482;27;20462;-57
2022/01/24 04:04:47;;;;;;;4.35;3.95;;;17.20;45.30;;;;;;5121975;27;20023;-56
2022/01/24 04:07:13;;;;;;;4.22;3.83;;;17.20;45.20;;;;;;5139292;27;20427;-55
2022/01/24 04:09:41;;;;;;;4.00;3.58;;;17.20;45.20;;;;;;5140118;27;20015;-57
2022/01/24 04:12:08;;;;;;;3.85;3.45;;;17.10;45.30;;;;;;5139787;27;20020;-57
2022/01/24 04:14:39;;;;;;;4.05;3.63;;;17.10;45.30;;;;;;5139002;27;20023;-56
2022/01/24 04:22:10;;;;;;;4.15;3.60;;;17.20;45.00;;;;;;5138208;27;20016;-56
2022/01/24 04:24:37;;;;;;;4.28;3.63;;;17.30;44.90;;;;;;5138362;27;20092;-56
2022/01/24 04:27:03;;;;;;;3.90;3.60;;;17.40;44.70;;;;;;5138170;27;20015;-57
2022/01/24 04:29:30;;;;;;;4.25;3.20;;;17.50;44.50;;;;;;5120000;27;20027;-57
2022/01/24 04:31:56;;;;;;;4.20;3.80;;;17.50;44.30;;;;;;5138473;27;20125;-56
2022/01/24 04:34:22;;;;;;;3.97;3.50;;;17.60;44.20;;;;;;5138226;27;20395;-57
2022/01/24 04:36:48;;;;;;;3.67;3.30;;;17.70;44.10;;;;;;5137684;27;20106;-55
2022/01/24 04:39:14;;;;;;;3.75;3.45;;;17.80;43.90;;;;;;5137965;27;20148;-55
2022/01/24 04:41:44;;;;;;;3.75;3.38;;;17.90;43.70;;;;;;5119028;27;20023;-55
2022/01/24 04:44:28;;;;;;;3.90;3.45;;;18.00;43.60;;;;;;5119645;27;20019;-55
2022/01/24 04:47:16;;;;;;;4.18;3.60;;;18.00;43.40;;;;;;5137291;27;20019;-55
2022/01/24 04:55:10;;;;;;;3.83;3.47;;;18.30;42.90;;;;;;5140924;27;20026;-56
2022/01/24 04:57:36;;;;;;;3.40;3.10;;;18.40;42.70;;;;;;5140208;27;20005;-56
2022/01/24 05:00:04;;;;;;;3.45;3.15;;;18.50;42.50;;;;;;5140406;27;20064;-56
2022/01/24 05:02:30;;;;;;;3.53;3.22;;;18.60;42.30;;;;;;5140326;27;20026;-56
2022/01/24 05:04:57;;;;;;;3.50;3.13;;;18.70;42.10;;;;;;5140652;27;20605;-57
2022/01/24 05:07:23;;;;;;;3.25;2.95;;;18.70;41.90;;;;;;5140631;27;20070;-57
2022/01/24 05:10:12;;;;;;;3.22;2.92;;;18.80;41.80;;;;;;5140780;27;20015;-56
2022/01/24 05:25:57;;;;;;;4.45;3.15;;;19.30;40.90;;;;;;5139886;27;20080;-57
2022/01/24 05:28:23;;;;;;;3.65;3.03;;;19.40;40.80;;;;;;5140268;27;20023;-54
2022/01/24 05:30:49;;;;;;;3.47;3.17;;;19.50;40.60;;;;;;5139404;27;20418;-56
2022/01/24 05:33:15;;;;;;;4.38;3.00;;;19.50;40.50;;;;;;5139926;27;20031;-55
2022/01/24 05:35:41;;;;;;;3.03;2.83;;;19.60;40.40;;;;;;5140399;27;20355;-58
2022/01/24 05:38:10;;;;;;;2.90;2.70;;;19.70;40.30;;;;;;5139863;27;20045;-54
2022/01/24 05:40:36;;;;;;;3.10;2.85;;;19.80;40.20;;;;;;5140211;27;20015;-56
2022/01/24 05:43:10;;;;;;;3.58;3.28;;;19.80;40.00;;;;;;5140691;27;20150;-57
2022/01/24 05:45:36;;;;;;;3.08;2.72;;;19.90;40.00;;;;;;5139531;27;20477;-56
2022/01/24 05:48:02;;;;;;;3.15;2.85;;;19.90;39.90;;;;;;5140575;27;20027;-57
2022/01/24 05:50:29;;;;;;;3.40;3.10;;;20.00;39.80;;;;;;5140205;27;20141;-57
2022/01/24 05:52:55;;;;;;;3.10;2.83;;;20.10;39.70;;;;;;5139469;27;20027;-57
2022/01/24 05:55:21;;;;;;;3.08;2.78;;;20.10;39.50;;;;;;5116934;27;20016;-57
2022/01/24 05:57:47;;;;;;;3.20;2.90;;;20.20;39.60;;;;;;5135101;27;20023;-58
2022/01/24 06:00:13;;;;;;;3.17;2.83;;;20.30;39.40;;;;;;5135541;27;20397;-58
2022/01/24 06:02:39;;;;;;;3.20;2.80;;;20.30;39.30;;;;;;5115829;27;20099;-58
2022/01/24 06:05:06;;;;;;;3.05;2.78;;;20.40;39.30;;;;;;5135251;27;20034;-57
2022/01/24 06:07:32;;;;;;;3.08;2.80;;;20.50;39.20;;;;;;5134882;27;20058;-58
2022/01/24 06:09:58;;;;;;;3.67;3.03;;;20.50;39.00;;;;;;5134959;27;20015;-57
2022/01/24 06:12:26;;;;;;;3.30;2.90;;;20.60;39.00;;;;;;5134987;27;20023;-57
2022/01/24 06:14:52;;;;;;;3.28;2.97;;;20.70;38.90;;;;;;5135099;27;20056;-58
2022/01/24 06:17:17;;;;;;;2.72;2.53;;;20.70;38.80;;;;;;5134789;27;20007;-57
2022/01/24 06:19:46;;;;;;;3.90;2.90;;;20.70;38.70;;;;;;5134679;27;20419;-57
2022/01/24 06:22:12;;;;;;;2.90;2.60;;;20.80;38.60;;;;;;5134553;27;20102;-57
2022/01/24 06:24:38;;;;;;;3.72;2.85;;;20.80;38.60;;;;;;5134624;27;20016;-58
2022/01/24 06:27:04;;;;;;;3.03;2.70;;;21.00;38.50;;;;;;5134298;27;20030;-57
2022/01/24 06:29:30;;;;;;;2.75;2.55;;;21.00;38.40;;;;;;5116638;27;20019;-57
2022/01/24 06:31:56;;;;;;;2.90;2.70;;;21.00;38.30;;;;;;5133419;27;20381;-59
2022/01/24 06:34:21;;;;;;;3.63;2.72;;;21.10;38.30;;;;;;5098787;27;20434;-58
2022/01/24 06:36:47;;;;;;;3.35;2.83;;;21.10;38.20;;;;;;5098739;27;20422;-57
2022/01/24 06:39:14;;;;;;;3.00;2.70;;;21.20;38.20;;;;;;5134412;27;20458;-58
2022/01/24 06:41:42;;;;;;;3.33;2.63;;;21.20;38.10;;;;;;5134114;27;20385;-57
2022/01/24 06:44:08;;;;;;;3.05;2.75;;;21.20;38.10;;;;;;5116597;28;20095;-56
2022/01/24 06:46:34;;;;;;;2.78;2.53;;;21.30;38.10;;;;;;5134248;28;20023;-57
2022/01/24 06:49:00;;;;;;;3.13;2.83;;;21.30;38.00;;;;;;5098784;28;20023;-58
2022/01/24 06:51:26;;;;;;;3.10;2.80;;;21.40;37.90;;;;;;5134263;28;20030;-58
2022/01/24 06:53:52;;;;;;;2.70;2.50;;;21.40;37.90;;;;;;5134560;28;20016;-57
2022/01/24 06:56:18;;;;;;;3.30;2.70;;;21.50;37.90;;;;;;5135469;28;20007;-58
2022/01/24 06:58:44;;;;;;;2.90;2.65;;;21.50;37.90;;;;;;5134927;28;20012;-59
2022/01/24 07:01:10;;;;;;;8.65;4.18;;;21.50;37.70;;;;;;5115685;28;20118;-56
2022/01/24 07:03:35;;;;;;;13.32;6.80;;;21.10;36.70;;;;;;5115229;28;20103;-57
2022/01/24 07:06:02;;;;;;;15.85;6.65;;;20.40;36.30;;;;;;5133197;28;20068;-59
2022/01/24 07:08:28;;;;;;;17.90;7.70;;;20.00;37.20;;;;;;5132836;28;20162;-56
2022/01/24 07:10:55;;;;;;;18.40;9.23;;;19.70;36.30;;;;;;5132628;28;20031;-57
2022/01/24 07:13:21;;;;;;;13.82;8.18;;;19.40;35.40;;;;;;5097363;28;20063;-57
2022/01/24 07:15:54;;;;;;;14.00;9.27;;;19.20;35.40;;;;;;5133042;28;20106;-50
2022/01/24 07:20:56;;;;;;;18.45;8.70;;;18.70;35.30;;;;;;5114422;28;20076;-50
2022/01/24 07:23:22;;;;;;;24.25;9.18;;;18.90;36.10;;;;;;5096251;28;20534;-52
2022/01/24 07:25:48;;;;;;;15.98;10.05;;;18.90;35.80;;;;;;5096284;28;20453;-49
2022/01/24 07:28:16;;;;;;;13.07;9.73;;;18.70;35.90;;;;;;5132571;28;20007;-48
2022/01/24 07:30:42;;;;;;;13.75;9.68;;;18.40;36.50;;;;;;5132115;28;20028;-49
2022/01/24 07:33:08;;;;;;;18.88;11.50;;;18.20;37.00;;;;;;5132415;28;20084;-51
2022/01/24 07:35:34;;;;;;;15.07;10.98;;;18.10;37.50;;;;;;5132010;28;20016;-50
2022/01/24 07:38:00;;;;;;;17.40;11.25;;;17.90;37.60;;;;;;5132443;28;20046;-52
2022/01/24 07:40:31;;;;;;;16.77;11.55;;;17.80;38.00;;;;;;5114170;28;20016;-52
2022/01/24 07:43:12;;;;;;;19.02;11.52;;;17.70;37.50;;;;;;5116159;27;20038;-54
2022/01/24 07:45:43;;;;;;;21.40;12.23;;;17.70;37.80;;;;;;5136446;27;20019;-53
2022/01/24 07:48:20;;;;;;;15.77;11.95;;;17.70;38.00;;;;;;5136643;27;20011;-50
2022/01/24 07:50:47;;;;;;;15.70;12.02;;;17.80;37.70;;;;;;5118349;27;20019;-50
2022/01/24 07:53:14;;;;;;;17.15;11.52;;;17.80;38.10;;;;;;5136926;27;20026;-50
2022/01/24 07:55:40;;;;;;;18.52;12.38;;;17.80;37.80;;;;;;5136671;27;20008;-53
2022/01/24 07:58:06;;;;;;;18.88;12.88;;;17.80;37.30;;;;;;5136050;27;20496;-53
2022/01/24 08:00:33;;;;;;;19.80;12.93;;;17.80;37.60;;;;;;5135790;27;20011;-50
2022/01/24 08:02:59;;;;;;;19.13;12.80;;;17.70;37.60;;;;;;5136046;27;20023;-53
2022/01/24 08:05:28;;;;;;;15.68;12.05;;;17.60;37.80;;;;;;5117353;27;20389;-53
2022/01/24 08:07:54;;;;;;;17.10;13.63;;;17.60;37.90;;;;;;5136015;27;20127;-57
2022/01/24 08:10:19;;;;;;;15.23;11.93;;;17.60;38.20;;;;;;5135825;27;20161;-54
2022/01/24 08:12:45;;;;;;;18.25;12.13;;;17.60;38.10;;;;;;5134726;27;20047;-55
2022/01/24 08:15:14;;;;;;;16.35;12.70;;;17.60;37.90;;;;;;5117211;27;20463;-51
2022/01/24 08:17:43;;;;;;;17.30;12.13;;;17.50;37.60;;;;;;5136123;27;20410;-53
2022/01/24 08:20:10;;;;;;;15.73;11.90;;;17.40;37.20;;;;;;5136494;27;20016;-51
2022/01/24 08:22:38;;;;;;;18.20;12.38;;;17.20;37.20;;;;;;5135994;27;20023;-56
2022/01/24 08:25:05;;;;;;;22.10;12.15;;;17.10;37.80;;;;;;5135185;27;20011;-51
2022/01/24 08:27:31;;;;;;;16.65;12.40;;;16.90;37.80;;;;;;5134475;27;20060;-51
2022/01/24 08:30:00;;;;;;;26.30;13.40;;;16.90;37.90;;;;;;5135063;27;20090;-54
2022/01/24 08:32:26;;;;;;;14.77;13.07;;;16.80;38.20;;;;;;5134601;27;20019;-56
2022/01/24 08:34:52;;;;;;;17.13;12.55;;;16.80;38.20;;;;;;5134516;27;20030;-53
2022/01/24 08:37:18;;;;;;;15.68;12.13;;;16.80;38.10;;;;;;5134323;27;20011;-53
2022/01/24 08:39:45;;;;;;;14.38;11.95;;;16.70;38.50;;;;;;5134384;27;20019;-53
2022/01/24 08:42:20;;;;;;;17.77;12.70;;;16.70;38.40;;;;;;5116005;27;20449;-54
2022/01/24 08:47:25;;;;;;;18.25;12.75;;;16.70;38.00;;;;;;5134812;27;20030;-51
2022/01/24 08:49:51;;;;;;;17.17;12.57;;;16.60;38.10;;;;;;5134732;27;20031;-50
2022/01/24 08:52:18;;;;;;;14.68;13.07;;;16.70;38.50;;;;;;5134133;27;20127;-50
2022/01/24 08:54:46;;;;;;;16.02;13.20;;;16.60;39.40;;;;;;5133295;27;20446;-49
2022/01/24 08:57:15;;;;;;;22.75;14.23;;;16.60;38.60;;;;;;5134330;27;20022;-51
2022/01/24 08:59:41;;;;;;;20.52;12.20;;;16.70;38.60;;;;;;5134267;27;20012;-49
2022/01/24 09:02:08;;;;;;;15.43;12.00;;;16.70;39.00;;;;;;5098421;27;20043;-51
2022/01/24 09:04:34;;;;;;;17.27;11.63;;;16.80;38.20;;;;;;5134681;27;20023;-56
2022/01/24 09:07:04;;;;;;;21.02;12.57;;;17.00;38.40;;;;;;5116837;27;20619;-54
2022/01/24 09:09:34;;;;;;;16.83;10.88;;;17.40;37.90;;;;;;5134951;27;20499;-52
2022/01/24 09:12:02;;;;;;;19.53;11.20;;;17.80;37.10;;;;;;5135274;27;20027;-51
2022/01/24 09:14:28;;;;;;;16.58;12.15;;;18.10;36.30;;;;;;5134683;27;20257;-52
2022/01/24 09:16:54;;;;;;;15.60;11.80;;;18.40;35.70;;;;;;5082437;27;20445;-57
2022/01/24 09:19:20;;;;;;;18.70;10.57;;;18.60;35.30;;;;;;5134242;27;20015;-52
2022/01/24 09:21:45;;;;;;;22.30;11.70;;;18.70;35.50;;;;;;5116174;27;20022;-56
2022/01/24 09:24:12;;;;;;;21.08;12.50;;;18.60;35.50;;;;;;5116565;27;20038;-54
2022/01/24 09:26:41;;;;;;;15.95;13.27;;;18.40;35.70;;;;;;5116329;27;20019;-56
2022/01/24 09:29:10;;;;;;;15.43;13.35;;;18.20;35.70;;;;;;5099661;27;20030;-53
2022/01/24 09:31:39;;;;;;;20.00;13.40;;;18.10;36.10;;;;;;5099637;27;20020;-50
2022/01/24 09:34:05;;;;;;;18.08;13.13;;;18.00;36.60;;;;;;5133912;27;20028;-54
2022/01/24 09:36:32;;;;;;;21.65;13.45;;;17.90;36.60;;;;;;5134233;27;20011;-53
2022/01/24 09:39:05;;;;;;;23.10;11.95;;;18.00;37.30;;;;;;5116041;27;20496;-53
2022/01/24 09:41:32;;;;;;;21.88;12.55;;;18.00;36.30;;;;;;5115365;27;20057;-52
2022/01/24 09:43:58;;;;;;;14.10;12.35;;;18.20;36.20;;;;;;5097526;27;20072;-53
2022/01/24 09:46:26;;;;;;;21.35;12.75;;;18.40;36.50;;;;;;5133057;27;20450;-52
2022/01/24 09:48:56;;;;;;;26.88;13.02;;;18.40;35.50;;;;;;5114273;27;20114;-51
2022/01/24 09:51:22;;;;;;;17.88;13.45;;;18.30;36.00;;;;;;5098834;27;20029;-49
2022/01/24 09:53:50;;;;;;;18.20;14.15;;;18.20;36.40;;;;;;5114955;27;20031;-51
2022/01/24 09:56:17;;;;;;;19.63;14.00;;;18.00;36.30;;;;;;5114442;27;20027;-51
2022/01/24 09:58:43;;;;;;;17.27;13.55;;;17.80;36.40;;;;;;5133002;27;20042;-53
2022/01/24 10:01:15;;;;;;;17.70;13.95;;;17.70;36.40;;;;;;5097428;27;20815;-53
2022/01/24 10:03:48;;;;;;;18.70;13.57;;;17.70;36.30;;;;;;5132690;27;20012;-51
2022/01/24 10:06:14;;;;;;;16.15;12.70;;;17.70;36.50;;;;;;5097885;27;20026;-50
2022/01/24 10:08:40;;;;;;;16.75;12.43;;;17.90;36.10;;;;;;5133282;27;20031;-51
2022/01/24 10:11:08;;;;;;;20.98;12.07;;;18.30;35.60;;;;;;5133840;27;20051;-50
2022/01/24 10:19:33;;;;;;;15.88;11.95;;;18.70;36.00;;;;;;5116306;27;20015;-54
2022/01/24 10:22:00;;;;;;;18.90;11.40;;;18.70;35.60;;;;;;5030799;28;20029;-55
2022/01/24 10:24:26;;;;;;;17.98;12.43;;;18.90;35.60;;;;;;5030805;28;20581;-56
2022/01/24 10:27:28;;;;;;;18.75;11.75;;;19.00;35.20;;;;;;5030971;28;20025;-55
2022/01/24 10:30:02;;;;;;;16.73;11.88;;;19.00;35.30;;;;;;4973301;28;20034;-53
2022/01/24 10:32:37;;;;;;;18.20;12.48;;;18.80;35.40;;;;;;4956400;28;20588;-55
2022/01/24 10:35:26;;;;;;;14.10;12.38;;;18.80;35.60;;;;;;4972817;28;20553;-58
2022/01/24 10:43:57;;;;;;;19.10;13.00;;;18.90;35.20;;;;;;4962406;28;20025;-59
2022/01/24 10:46:26;;;;;;;16.15;12.43;;;18.80;35.20;;;;;;4975591;28;20035;-60
2022/01/24 10:49:07;;;;;;;14.70;12.40;;;18.60;35.60;;;;;;4958277;28;20106;-59
2022/01/24 10:51:44;;;;;;;15.80;12.35;;;18.70;35.30;;;;;;4973044;28;20498;-59
2022/01/24 10:54:10;;;;;;;14.38;12.75;;;18.70;35.40;;;;;;4973334;28;20603;-58
2022/01/24 10:56:43;;;;;;;18.60;12.52;;;18.70;35.60;;;;;;4971766;28;20035;-59
2022/01/24 10:59:13;;;;;;;15.75;12.80;;;18.70;36.10;;;;;;5052475;28;20039;-58
2022/01/24 11:01:39;;;;;;;16.20;12.13;;;18.70;34.90;;;;;;5069887;28;20040;-58
2022/01/24 11:04:07;;;;;;;13.85;10.95;;;19.00;34.40;;;;;;5069595;28;20035;-57
2022/01/24 11:06:34;;;;;;;15.05;10.80;;;19.20;34.00;;;;;;5131493;28;20046;-57
2022/01/24 11:09:15;;;;;;;15.55;10.30;;;19.40;33.60;;;;;;5114811;28;20129;-57
2022/01/24 11:11:42;;;;;;;15.68;9.68;;;19.60;33.30;;;;;;5133924;28;20034;-58
2022/01/24 11:14:09;;;;;;;15.13;8.63;;;19.70;33.10;;;;;;5133763;28;20440;-59
2022/01/24 11:16:38;;;;;;;12.93;8.75;;;19.80;32.80;;;;;;5134419;27;20008;-58
2022/01/24 11:19:12;;;;;;;12.80;8.80;;;19.90;32.70;;;;;;5137732;27;20303;-60
2022/01/24 11:21:38;;;;;;;15.20;9.05;;;20.00;32.60;;;;;;5138071;27;20102;-59
2022/01/24 11:24:07;;;;;;;13.25;8.13;;;20.00;32.40;;;;;;5137588;27;20030;-59
2022/01/24 11:26:33;;;;;;;9.77;8.60;;;20.10;32.30;;;;;;5103138;27;20011;-59
2022/01/24 11:28:58;;;;;;;13.98;10.27;;;20.10;32.30;;;;;;5118670;27;20015;-59
2022/01/24 11:31:26;;;;;;;15.02;10.63;;;19.90;32.30;;;;;;5118708;27;20415;-60
2022/01/24 11:34:00;;;;;;;17.38;11.52;;;19.90;32.30;;;;;;5118630;27;20031;-59
2022/01/24 11:36:39;;;;;;;15.07;10.68;;;19.80;32.20;;;;;;5102499;27;20060;-59
2022/01/24 11:39:06;;;;;;;11.60;10.10;;;19.90;32.10;;;;;;5119172;27;20096;-60
2022/01/24 11:41:33;;;;;;;10.73;8.55;;;20.00;31.90;;;;;;5137417;27;20015;-60
2022/01/24 11:44:11;;;;;;;11.75;9.02;;;20.00;31.80;;;;;;5119339;27;20043;-60
2022/01/24 11:46:47;;;;;;;18.00;11.20;;;20.10;31.70;;;;;;5119373;27;20422;-60
2022/01/24 11:49:40;;;;;;;13.88;11.00;;;20.10;32.60;;;;;;5136304;27;20046;-61
2022/01/24 11:52:18;;;;;;;21.05;13.02;;;19.90;33.10;;;;;;5132182;27;20057;-59
2022/01/24 11:54:53;;;;;;;23.98;12.98;;;19.60;33.60;;;;;;5118729;27;20015;-59
2022/01/24 11:57:38;;;;;;;20.40;12.93;;;19.40;34.50;;;;;;5119285;27;20028;-60
2022/01/24 12:00:07;;;;;;;185.88;31.58;;;19.10;34.70;;;;;;5136474;27;20094;-58
2022/01/24 12:02:50;;;;;;;39.72;16.10;;;19.00;35.10;;;;;;5136120;27;20098;-59
2022/01/24 12:05:19;;;;;;;110.65;21.17;;;18.90;35.30;;;;;;5117064;27;20042;-60
2022/01/24 12:07:55;;;;;;;51.10;18.00;;;18.90;35.20;;;;;;5116741;27;20050;-60
2022/01/24 12:10:26;;;;;;;34.25;15.77;;;18.70;35.10;;;;;;5118293;27;20022;-61
2022/01/24 12:13:03;;;;;;;30.75;15.88;;;18.70;35.20;;;;;;5134859;27;20496;-59
2022/01/24 12:15:40;;;;;;;24.73;15.60;;;18.70;35.30;;;;;;5099326;27;20427;-60
2022/01/24 12:18:25;;;;;;;28.30;15.73;;;18.60;35.10;;;;;;5135037;27;20096;-60
2022/01/24 12:21:06;;;;;;;21.63;15.90;;;18.60;35.10;;;;;;5116510;27;20068;-59
2022/01/24 12:23:44;;;;;;;;;;;18.50;35.20;;;;;;5135693;27;20500;-58
2022/01/24 12:26:16;;;;;;;19.10;14.80;;;18.50;35.70;;;;;;5117115;27;20052;-59
2022/01/24 12:28:42;;;;;;;20.60;15.73;;;18.40;35.50;;;;;;5135102;27;20022;-60
2022/01/24 12:31:22;;;;;;;19.35;15.60;;;18.30;35.70;;;;;;5134639;27;20024;-60
2022/01/24 12:33:58;;;;;;;20.33;14.73;;;18.20;35.60;;;;;;5100649;27;20011;-58
2022/01/24 12:36:46;;;;;;;22.17;16.35;;;18.10;35.60;;;;;;5099378;27;20015;-59
2022/01/24 12:39:17;;;;;;;27.92;14.82;;;18.10;36.00;;;;;;5136247;27;20064;-60
2022/01/24 12:41:48;;;;;;;22.05;14.07;;;18.20;36.20;;;;;;5135280;27;20080;-59
2022/01/24 12:47:05;;;;;;;18.40;13.90;;;18.50;36.10;;;;;;5119954;27;20029;-58
2022/01/24 12:49:31;;;;;;;17.83;14.52;;;18.50;36.00;;;;;;5134991;27;20027;-59
2022/01/24 12:52:02;;;;;;;21.60;14.75;;;18.30;36.00;;;;;;5116904;27;20110;-58
2022/01/24 12:54:31;;;;;;;;;;;18.30;36.00;;;;;;5135059;27;20429;-59
2022/01/24 12:57:00;;;;;;;91.78;21.02;;;18.40;35.70;;;;;;5134407;27;20392;-59
2022/01/24 12:59:29;;;;;;;40.00;17.97;;;18.40;35.70;;;;;;5133742;27;20102;-59
2022/01/24 13:02:04;;;;;;;37.10;17.73;;;18.30;35.50;;;;;;5116099;27;20388;-60
2022/01/24 13:04:35;;;;;;;28.77;15.75;;;18.30;35.70;;;;;;5134409;27;20461;-60
2022/01/24 13:07:01;;;;;;;31.42;17.00;;;18.20;36.10;;;;;;5134133;27;20019;-62
2022/01/24 13:09:29;;;;;;;23.70;16.15;;;18.20;36.00;;;;;;5115582;27;20052;-59
2022/01/24 13:12:07;;;;;;;39.88;18.00;;;18.20;35.90;;;;;;5133719;27;20038;-61
2022/01/24 13:14:50;;;;;;;72.85;20.92;;;18.20;36.00;;;;;;5116771;27;20018;-60
2022/01/24 13:36:13;;;;;;;31.30;16.45;;;18.60;35.70;;;;;;4972179;28;19932;-60
2022/01/24 13:42:00;;;;;;;25.67;16.30;;;18.20;35.60;;;;;;4972722;28;20022;-59
2022/01/24 13:44:26;;;;;;;21.77;16.27;;;18.20;35.70;;;;;;4972304;28;20468;-62
2022/01/24 13:46:52;;;;;;;22.00;16.02;;;17.90;35.80;;;;;;4973051;28;20039;-60
2022/01/24 13:49:18;;;;;;;19.45;15.27;;;17.90;35.90;;;;;;4972348;28;20070;-59
2022/01/24 13:51:50;;;;;;;21.95;16.15;;;17.80;35.70;;;;;;4972322;28;20130;-62
2022/01/24 13:54:24;;;;;;;19.40;14.93;;;17.80;36.20;;;;;;4972264;28;20560;-59
2022/01/24 13:56:57;;;;;;;17.13;14.32;;;17.80;36.40;;;;;;4979554;28;20061;-59
2022/01/24 13:59:25;;;;;;;21.75;16.92;;;17.90;36.40;;;;;;4991381;28;20105;-59
2022/01/24 14:02:05;;;;;;;21.33;15.55;;;17.90;36.10;;;;;;5017868;28;20040;-60
2022/01/24 14:04:46;;;;;;;18.63;15.10;;;18.00;36.00;;;;;;5106379;27;20035;-59
2022/01/24 14:07:42;;;;;;;20.53;16.00;;;17.90;36.10;;;;;;5133387;27;20512;-59
2022/01/24 14:10:12;;;;;;;22.48;15.90;;;17.90;36.10;;;;;;5133766;27;20099;-59
2022/01/24 14:12:53;;;;;;;23.25;15.32;;;17.90;36.20;;;;;;5114642;27;20015;-58
2022/01/24 14:15:28;;;;;;;34.97;16.50;;;17.90;36.50;;;;;;5133903;27;20054;-61
2022/01/24 14:20:46;;;;;;;27.50;14.07;;;18.20;36.40;;;;;;5118204;27;20019;-55
2022/01/24 14:26:36;;;;;;;31.55;10.15;;;19.10;35.20;;;;;;5135245;27;20078;-56
2022/01/24 14:29:07;;;;;;;20.77;8.75;;;19.40;34.60;;;;;;5099364;27;20019;-55
2022/01/24 14:31:34;;;;;;;24.08;8.52;;;19.70;34.10;;;;;;5135014;27;20030;-57
2022/01/24 14:34:01;;;;;;;31.65;7.72;;;20.00;33.80;;;;;;5134719;27;20144;-60
2022/01/24 14:36:28;;;;;;;45.95;9.65;;;20.10;34.20;;;;;;5135392;27;20458;-57
2022/01/24 14:39:04;;;;;;;51.10;9.93;;;20.20;33.40;;;;;;5116371;28;20019;-56
2022/01/24 14:41:43;;;;;;;65.95;10.80;;;20.30;33.30;;;;;;5134856;27;20090;-56
2022/01/24 14:46:54;;;;;;;50.45;10.38;;;20.30;33.20;;;;;;5120193;28;20033;-55
2022/01/24 14:49:23;;;;;;;30.33;10.02;;;20.30;33.10;;;;;;5135007;28;20142;-57
2022/01/24 14:51:49;;;;;;;48.50;10.35;;;20.30;33.00;;;;;;5115688;28;20019;-56
2022/01/24 14:54:23;;;;;;;30.67;9.18;;;20.30;33.00;;;;;;5134455;28;20087;-55
2022/01/24 14:56:51;;;;;;;33.65;9.82;;;20.20;33.00;;;;;;5134947;28;20011;-56
2022/01/24 14:59:17;;;;;;;28.92;9.80;;;20.20;33.10;;;;;;5135477;28;20065;-62
2022/01/24 15:01:43;;;;;;;30.33;10.70;;;20.20;33.00;;;;;;5136039;28;20027;-55
2022/01/24 15:04:09;;;;;;;28.90;10.90;;;20.20;32.90;;;;;;5135924;28;20114;-55
2022/01/24 15:06:35;;;;;;;30.85;12.60;;;20.20;33.00;;;;;;5117000;28;20043;-55
2022/01/24 15:09:04;;;;;;;44.65;16.88;;;20.20;32.90;;;;;;5135701;28;20047;-54
2022/01/24 15:11:32;;;;;;;38.08;19.13;;;20.20;32.70;;;;;;5135271;28;20027;-55
2022/01/24 15:14:35;;;;;;;34.38;22.27;;;20.20;32.70;;;;;;5136633;28;20012;-56
2022/01/24 15:17:02;;;;;;;41.92;26.15;;;20.20;32.60;;;;;;5132464;28;20417;-57